Time;durP1;ratioP1;P1;durP2;ratioP2;P2;SDS_P1;SDS_P2;PMS_P1;PMS_P2;Temp;Humidity;BMP_temperature;BMP_pressure;BME280_temperature;BME280_humidity;BME280_pressure;Samples;Min_cycle;Max_cycle;Signal;HPM_P1;HPM_P2
2022/08/20 00:02:25;;;;;;;39.38;20.85;;;19.40;99.90;;;;;;5054538;28;20017;-72
2022/08/20 00:04:51;;;;;;;37.60;22.15;;;19.50;99.90;;;;;;5053781;28;20095;-74
2022/08/20 00:07:17;;;;;;;38.50;20.77;;;19.40;99.90;;;;;;5054301;28;20029;-75
2022/08/20 00:09:44;;;;;;;37.03;20.58;;;19.40;99.90;;;;;;5054147;28;20366;-74
2022/08/20 00:12:11;;;;;;;34.65;19.15;;;19.20;99.90;;;;;;5053876;28;20025;-74
2022/08/20 00:14:38;;;;;;;36.15;20.05;;;19.20;99.90;;;;;;5054127;28;20075;-73
2022/08/20 00:17:04;;;;;;;41.65;16.23;;;19.30;99.90;;;;;;5053963;28;20107;-73
2022/08/20 00:19:30;;;;;;;34.28;16.77;;;19.20;99.90;;;;;;5037383;28;20053;-70
2022/08/20 00:21:56;;;;;;;24.75;15.02;;;19.10;99.90;;;;;;5055570;28;20048;-73
2022/08/20 00:24:23;;;;;;;31.60;13.50;;;19.50;99.90;;;;;;5051857;28;20048;-75
2022/08/20 00:26:48;;;;;;;26.35;13.15;;;19.30;99.90;;;;;;5053401;28;20033;-70
2022/08/20 00:29:15;;;;;;;24.85;11.23;;;19.10;99.90;;;;;;5051684;28;20500;-72
2022/08/20 00:31:41;;;;;;;24.83;11.13;;;19.20;99.90;;;;;;5041520;28;20526;-73
2022/08/20 00:34:07;;;;;;;25.27;11.57;;;19.10;99.90;;;;;;5053392;28;20036;-72
2022/08/20 00:36:33;;;;;;;22.38;8.77;;;19.40;99.90;;;;;;5053576;28;20096;-70
2022/08/20 00:38:59;;;;;;;28.92;10.80;;;19.30;99.90;;;;;;5035527;28;20384;-72
2022/08/20 00:41:26;;;;;;;19.13;8.77;;;19.30;99.90;;;;;;5053363;28;20017;-70
2022/08/20 00:44:07;;;;;;;20.05;8.27;;;19.50;99.90;;;;;;5053639;28;20108;-71
2022/08/20 00:46:33;;;;;;;20.80;8.65;;;19.40;99.90;;;;;;5053302;28;20033;-73
2022/08/20 00:49:01;;;;;;;15.07;8.07;;;19.30;99.90;;;;;;5053514;28;20021;-72
2022/08/20 00:51:41;;;;;;;18.17;8.27;;;19.20;99.90;;;;;;5053292;28;20059;-74
2022/08/20 00:54:18;;;;;;;22.23;8.50;;;19.40;99.90;;;;;;5052988;28;20048;-73
2022/08/20 00:56:49;;;;;;;23.70;8.60;;;19.30;99.90;;;;;;5053141;28;20113;-73
2022/08/20 00:59:20;;;;;;;22.83;8.23;;;19.30;99.90;;;;;;5053202;28;20055;-73
2022/08/20 01:01:47;;;;;;;22.65;9.15;;;18.80;99.90;;;;;;5052779;28;20029;-75
2022/08/20 01:04:13;;;;;;;26.10;8.77;;;18.70;99.90;;;;;;5053014;28;20079;-74
2022/08/20 01:06:40;;;;;;;21.40;8.63;;;18.40;99.90;;;;;;5053014;28;20408;-74
2022/08/20 01:09:07;;;;;;;18.52;7.68;;;18.30;99.90;;;;;;5053092;28;20033;-73
2022/08/20 01:11:35;;;;;;;29.83;8.55;;;18.20;99.90;;;;;;5053008;28;20021;-73
2022/08/20 01:16:53;;;;;;;17.85;7.93;;;18.30;99.90;;;;;;5052460;28;20035;-75
2022/08/20 01:19:27;;;;;;;22.27;8.00;;;18.50;99.90;;;;;;5052989;28;20029;-75
2022/08/20 01:21:53;;;;;;;22.05;7.65;;;18.70;99.90;;;;;;5052893;28;20083;-74
2022/08/20 01:24:36;;;;;;;21.92;7.75;;;18.40;99.90;;;;;;5052750;28;20032;-72
2022/08/20 01:27:04;;;;;;;21.63;7.55;;;18.50;99.90;;;;;;5052897;28;20461;-72
2022/08/20 01:29:35;;;;;;;18.95;7.28;;;18.30;99.90;;;;;;5052775;28;20525;-75
2022/08/20 01:32:02;;;;;;;20.38;7.68;;;18.10;99.90;;;;;;5052154;28;20021;-72
2022/08/20 01:34:28;;;;;;;23.40;7.60;;;18.10;99.90;;;;;;5052719;28;20033;-73
2022/08/20 01:36:56;;;;;;;20.90;7.38;;;18.10;99.90;;;;;;5052488;28;20029;-75
2022/08/20 01:39:26;;;;;;;28.77;8.00;;;18.00;99.90;;;;;;5052854;28;20500;-74
2022/08/20 01:42:03;;;;;;;24.98;9.10;;;18.00;99.90;;;;;;5052492;28;20554;-73
2022/08/20 01:44:31;;;;;;;30.02;9.10;;;18.00;99.90;;;;;;5052395;28;20028;-74
2022/08/20 01:47:06;;;;;;;19.20;7.57;;;18.20;99.90;;;;;;5052328;28;20025;-73
2022/08/20 01:49:34;;;;;;;28.25;8.18;;;18.10;99.90;;;;;;5052783;28;20124;-73
2022/08/20 01:52:04;;;;;;;26.95;9.27;;;18.20;99.90;;;;;;5052381;28;20029;-75
2022/08/20 01:54:32;;;;;;;28.42;8.48;;;18.40;99.90;;;;;;5052418;28;20052;-74
2022/08/20 01:57:14;;;;;;;20.30;8.40;;;18.30;99.90;;;;;;5052562;28;20539;-74
2022/08/20 01:59:41;;;;;;;23.98;8.98;;;17.90;99.90;;;;;;5052454;28;20075;-75
2022/08/20 02:02:07;;;;;;;25.48;8.43;;;17.90;99.90;;;;;;5052678;28;20651;-74
2022/08/20 02:04:34;;;;;;;25.30;7.93;;;17.80;99.90;;;;;;5034540;28;20036;-75
2022/08/20 02:07:03;;;;;;;30.30;8.55;;;17.70;99.90;;;;;;5052602;28;20063;-73
2022/08/20 02:09:32;;;;;;;28.67;8.48;;;17.60;99.90;;;;;;5052201;28;20037;-74
2022/08/20 02:11:58;;;;;;;28.23;8.60;;;17.60;99.90;;;;;;5052518;28;20377;-74
2022/08/20 02:14:26;;;;;;;32.38;8.20;;;17.90;99.90;;;;;;5051957;28;20064;-72
2022/08/20 02:16:52;;;;;;;29.15;8.38;;;18.20;99.90;;;;;;5052321;28;20025;-72
2022/08/20 02:19:33;;;;;;;33.45;8.30;;;17.90;99.90;;;;;;5052013;28;20489;-73
2022/08/20 02:22:05;;;;;;;28.92;8.15;;;17.80;99.90;;;;;;5047602;28;20045;-73
2022/08/20 02:24:31;;;;;;;;;;;17.70;99.90;;;;;;5050628;28;20078;-73
2022/08/20 02:26:56;;;;;;;27.75;8.30;;;17.60;99.90;;;;;;5052281;28;19909;-71
2022/08/20 02:29:22;;;;;;;32.10;8.73;;;17.70;99.90;;;;;;5051988;28;20033;-74
2022/08/20 02:31:48;;;;;;;30.23;7.30;;;17.60;99.90;;;;;;5052135;28;20135;-70
2022/08/20 02:34:14;;;;;;;29.75;8.75;;;17.60;99.90;;;;;;5052154;28;20132;-72
2022/08/20 02:36:42;;;;;;;35.58;9.52;;;17.80;99.90;;;;;;5052063;28;20096;-71
2022/08/20 02:39:10;;;;;;;24.75;8.65;;;17.80;99.90;;;;;;5052200;28;20033;-71
2022/08/20 02:41:38;;;;;;;25.48;8.02;;;17.70;99.90;;;;;;5052185;28;20037;-73
2022/08/20 02:44:05;;;;;;;24.13;8.63;;;17.60;99.90;;;;;;5053407;28;20029;-74
2022/08/20 02:46:31;;;;;;;31.48;8.32;;;17.40;99.90;;;;;;5055885;28;20458;-72
2022/08/20 02:48:58;;;;;;;23.33;7.50;;;17.50;99.90;;;;;;5055652;28;20025;-71
2022/08/20 02:51:24;;;;;;;24.95;7.80;;;17.50;99.90;;;;;;5055680;28;20523;-71
2022/08/20 02:53:50;;;;;;;26.85;8.40;;;17.50;99.90;;;;;;5055305;28;20032;-74
2022/08/20 02:56:17;;;;;;;33.63;7.80;;;17.50;99.90;;;;;;5055604;28;20036;-72
2022/08/20 02:58:43;;;;;;;29.50;8.05;;;17.40;99.90;;;;;;5055413;28;20028;-70
2022/08/20 03:01:13;;;;;;;35.75;8.35;;;17.60;99.90;;;;;;5055716;28;20029;-71
2022/08/20 03:03:40;;;;;;;25.48;7.82;;;17.50;99.90;;;;;;5068140;28;20033;-71
2022/08/20 03:06:06;;;;;;;30.75;8.27;;;17.30;99.90;;;;;;5066518;28;20083;-70
2022/08/20 03:08:33;;;;;;;30.75;8.02;;;17.50;99.90;;;;;;5055469;28;20588;-71
2022/08/20 03:10:59;;;;;;;32.13;7.82;;;17.50;99.90;;;;;;5054905;28;20070;-73
2022/08/20 03:13:24;;;;;;;31.38;9.07;;;17.40;99.90;;;;;;5055086;28;20098;-75
2022/08/20 03:15:56;;;;;;;25.58;8.20;;;17.50;99.90;;;;;;5055025;28;20080;-71
2022/08/20 03:18:25;;;;;;;30.75;8.52;;;17.60;99.90;;;;;;5055217;28;20032;-71
2022/08/20 03:20:51;;;;;;;31.25;8.00;;;17.60;99.90;;;;;;5054644;28;20036;-74
2022/08/20 03:23:18;;;;;;;31.63;8.18;;;17.50;99.90;;;;;;5037002;28;20026;-74
2022/08/20 03:25:45;;;;;;;28.55;7.72;;;17.50;99.90;;;;;;5054914;28;20474;-69
2022/08/20 03:28:13;;;;;;;33.95;8.68;;;17.60;99.90;;;;;;5054938;28;20043;-70
2022/08/20 03:30:39;;;;;;;29.17;8.32;;;17.40;99.90;;;;;;5054845;28;20096;-74
2022/08/20 03:33:05;;;;;;;32.50;7.70;;;17.40;99.90;;;;;;5054536;28;20098;-74
2022/08/20 03:35:32;;;;;;;34.35;8.93;;;17.40;99.90;;;;;;5036764;28;20036;-74
2022/08/20 03:37:59;;;;;;;29.95;8.15;;;17.60;99.90;;;;;;5054851;28;20474;-74
2022/08/20 03:40:31;;;;;;;34.45;8.63;;;17.80;99.90;;;;;;5054569;28;20104;-69
2022/08/20 03:42:57;;;;;;;33.95;7.57;;;17.70;99.90;;;;;;5054581;28;20056;-68
2022/08/20 03:45:25;;;;;;;28.50;7.70;;;17.40;99.90;;;;;;5054552;28;20040;-74
2022/08/20 03:47:53;;;;;;;28.65;8.52;;;17.40;99.90;;;;;;5036870;28;20029;-71
2022/08/20 03:50:22;;;;;;;42.15;8.85;;;17.60;99.90;;;;;;5054257;28;20013;-75
2022/08/20 03:52:52;;;;;;;33.05;7.97;;;17.70;99.90;;;;;;5054533;28;20029;-74
2022/08/20 03:55:20;;;;;;;43.08;8.98;;;17.60;99.90;;;;;;5053494;28;20240;-72
2022/08/20 03:57:56;;;;;;;28.42;8.48;;;17.40;99.90;;;;;;5036565;28;20427;-72
2022/08/20 04:00:26;;;;;;;32.75;8.98;;;17.60;99.90;;;;;;5054248;28;20362;-74
2022/08/20 04:02:52;;;;;;;29.08;8.15;;;17.80;99.90;;;;;;5054341;28;20029;-72
2022/08/20 04:05:18;;;;;;;36.60;8.23;;;17.70;99.90;;;;;;5054194;28;20035;-73
2022/08/20 04:07:44;;;;;;;30.88;8.73;;;17.80;99.90;;;;;;5054272;28;20025;-69
2022/08/20 04:10:11;;;;;;;31.13;8.38;;;17.60;99.90;;;;;;5053638;28;20028;-70
2022/08/20 04:12:40;;;;;;;37.00;9.52;;;17.60;99.90;;;;;;5054253;28;20377;-70
2022/08/20 04:15:09;;;;;;;34.40;8.65;;;17.50;99.90;;;;;;5053959;28;20037;-69
2022/08/20 04:17:38;;;;;;;27.15;7.53;;;17.50;99.90;;;;;;5053822;28;20025;-72
2022/08/20 04:20:05;;;;;;;27.98;8.68;;;17.50;99.90;;;;;;5053986;28;20068;-70
2022/08/20 04:22:31;;;;;;;34.80;8.20;;;17.60;99.90;;;;;;5053749;28;20025;-69
2022/08/20 04:24:57;;;;;;;32.75;8.05;;;17.70;99.90;;;;;;5053162;28;20044;-72
2022/08/20 04:27:23;;;;;;;36.67;8.40;;;17.70;99.90;;;;;;5053852;28;20032;-73
2022/08/20 04:29:48;;;;;;;24.75;8.50;;;17.90;99.90;;;;;;5035898;28;20044;-71
2022/08/20 04:32:14;;;;;;;31.67;8.82;;;17.70;99.90;;;;;;5053525;28;20582;-69
2022/08/20 04:34:40;;;;;;;40.30;8.30;;;17.60;99.90;;;;;;5053693;28;20041;-71
2022/08/20 04:37:06;;;;;;;27.90;8.10;;;17.60;99.90;;;;;;5053494;28;20024;-69
2022/08/20 04:39:32;;;;;;;32.92;8.48;;;17.60;99.90;;;;;;5035350;28;20393;-72
2022/08/20 04:41:58;;;;;;;31.75;8.30;;;17.60;99.90;;;;;;5053017;28;20032;-71
2022/08/20 04:44:24;;;;;;;29.30;8.52;;;17.50;99.90;;;;;;5035268;28;20036;-72
2022/08/20 04:46:50;;;;;;;30.55;8.40;;;17.60;99.90;;;;;;5052645;28;20029;-71
2022/08/20 04:49:15;;;;;;;36.33;8.50;;;17.30;99.90;;;;;;5053288;28;20071;-69
2022/08/20 04:51:41;;;;;;;30.88;10.13;;;16.90;99.90;;;;;;5053360;28;20025;-69
2022/08/20 04:54:07;;;;;;;33.88;9.70;;;17.00;99.90;;;;;;5052551;28;20406;-69
2022/08/20 04:56:38;;;;;;;31.80;8.38;;;17.10;99.90;;;;;;5053118;28;20036;-70
2022/08/20 04:59:05;;;;;;;30.80;9.45;;;17.20;99.90;;;;;;5053258;28;20021;-69
2022/08/20 05:01:31;;;;;;;37.47;9.20;;;17.00;99.90;;;;;;5053104;28;20397;-72
2022/08/20 05:03:58;;;;;;;39.22;9.27;;;17.00;99.90;;;;;;5052888;28;20033;-72
2022/08/20 05:06:27;;;;;;;41.17;9.63;;;16.70;99.90;;;;;;5052512;28;20028;-72
2022/08/20 05:08:54;;;;;;;24.02;9.75;;;16.40;99.90;;;;;;5052735;28;20064;-72
2022/08/20 05:11:22;;;;;;;38.75;10.70;;;16.30;99.90;;;;;;5052845;28;20047;-73
2022/08/20 05:13:49;;;;;;;31.60;9.88;;;16.30;99.90;;;;;;5053120;28;20033;-69
2022/08/20 05:16:16;;;;;;;39.65;10.85;;;16.20;99.90;;;;;;5052911;28;20037;-70
2022/08/20 05:18:44;;;;;;;32.45;10.30;;;16.30;99.90;;;;;;5035005;28;20115;-70
2022/08/20 05:21:09;;;;;;;40.00;11.05;;;16.50;99.90;;;;;;5052713;28;20040;-70
2022/08/20 05:23:40;;;;;;;30.98;9.93;;;16.70;99.90;;;;;;5034757;28;20025;-71
2022/08/20 05:26:06;;;;;;;33.42;10.52;;;16.70;99.90;;;;;;5052670;28;20052;-72
2022/08/20 05:28:32;;;;;;;32.70;10.48;;;16.60;99.90;;;;;;5052797;28;20044;-69
2022/08/20 05:31:00;;;;;;;28.38;10.65;;;16.80;99.90;;;;;;5052646;28;20031;-71
2022/08/20 05:33:27;;;;;;;27.42;10.68;;;16.40;99.90;;;;;;5052518;28;20040;-74
2022/08/20 05:35:53;;;;;;;40.05;11.57;;;16.30;99.90;;;;;;5052981;28;20025;-75
2022/08/20 05:38:23;;;;;;;33.22;12.07;;;16.30;99.90;;;;;;5052307;28;20072;-74
2022/08/20 05:40:54;;;;;;;26.80;10.90;;;16.30;99.90;;;;;;5052782;28;20032;-75
2022/08/20 05:43:20;;;;;;;37.17;11.27;;;16.30;99.90;;;;;;5053331;28;20029;-75
2022/08/20 05:45:51;;;;;;;24.08;11.80;;;16.30;99.90;;;;;;5056211;28;20100;-74
2022/08/20 05:48:20;;;;;;;43.50;12.40;;;16.50;99.90;;;;;;5018963;28;20033;-75
2022/08/20 05:50:48;;;;;;;37.30;11.65;;;16.60;99.90;;;;;;5053639;28;20081;-74
2022/08/20 05:53:15;;;;;;;33.17;12.40;;;16.80;99.90;;;;;;5052102;28;20013;-76
2022/08/20 05:55:42;;;;;;;36.08;12.93;;;16.80;99.90;;;;;;5043104;28;20068;-76
2022/08/20 05:58:16;;;;;;;37.25;12.95;;;16.80;99.90;;;;;;5050056;28;20457;-76
2022/08/20 06:00:42;;;;;;;44.35;13.02;;;17.20;99.90;;;;;;5047797;28;20064;-77
2022/08/20 06:05:52;;;;;;;43.08;14.20;;;17.10;99.90;;;;;;5043394;28;20437;-75
2022/08/20 06:08:19;;;;;;;39.63;13.40;;;17.30;99.90;;;;;;5059197;28;20060;-75
2022/08/20 06:10:45;;;;;;;44.03;14.20;;;17.30;99.90;;;;;;5018249;28;20024;-77
2022/08/20 06:13:11;;;;;;;30.85;13.02;;;17.40;99.90;;;;;;5045538;28;20029;-72
2022/08/20 06:15:37;;;;;;;35.90;13.98;;;17.40;99.90;;;;;;5045443;28;20397;-76
2022/08/20 06:18:06;;;;;;;46.15;13.95;;;17.60;99.90;;;;;;5049608;28;20485;-76
2022/08/20 06:20:37;;;;;;;35.03;13.48;;;17.80;99.90;;;;;;5057681;28;20392;-74
2022/08/20 06:23:03;;;;;;;33.53;13.75;;;17.80;99.90;;;;;;5047200;28;20037;-73
2022/08/20 06:25:30;;;;;;;38.22;12.43;;;17.80;99.90;;;;;;5065630;28;20025;-75
2022/08/20 06:27:56;;;;;;;45.92;14.93;;;18.00;99.90;;;;;;5059653;28;20052;-71
2022/08/20 06:30:22;;;;;;;40.35;14.65;;;17.90;99.90;;;;;;5055202;28;20060;-70
2022/08/20 06:32:49;;;;;;;40.20;14.32;;;17.80;99.90;;;;;;5054643;28;20020;-71
2022/08/20 06:35:15;;;;;;;35.15;14.95;;;18.10;99.90;;;;;;5068726;28;20052;-70
2022/08/20 06:37:41;;;;;;;33.38;13.60;;;18.20;99.90;;;;;;5069652;28;20036;-71
2022/08/20 06:40:28;;;;;;;38.15;15.55;;;18.50;99.90;;;;;;5064402;28;20017;-73
2022/08/20 06:42:55;;;;;;;37.08;15.15;;;18.30;99.90;;;;;;5058595;28;20139;-75
2022/08/20 06:45:28;;;;;;;45.15;14.43;;;18.40;99.90;;;;;;5057780;28;20311;-73
2022/08/20 06:47:56;;;;;;;38.95;13.85;;;18.30;99.90;;;;;;5071186;28;20093;-69
2022/08/20 06:50:30;;;;;;;37.10;13.55;;;18.50;99.90;;;;;;5064945;28;20028;-68
2022/08/20 06:52:56;;;;;;;38.55;14.82;;;18.40;99.90;;;;;;5060006;28;20025;-68
2022/08/20 06:55:23;;;;;;;30.85;13.73;;;18.30;99.90;;;;;;5052823;28;20425;-69
2022/08/20 06:58:00;;;;;;;41.53;14.45;;;18.40;99.90;;;;;;5049135;28;20025;-71
2022/08/20 07:00:27;;;;;;;37.28;14.60;;;18.50;99.90;;;;;;5056655;28;20028;-72
2022/08/20 07:02:54;;;;;;;35.30;15.43;;;18.90;99.90;;;;;;5045707;28;20022;-74
2022/08/20 07:05:20;;;;;;;29.10;13.15;;;19.20;99.90;;;;;;5044228;28;20044;-72
2022/08/20 07:07:48;;;;;;;42.35;13.35;;;19.00;99.90;;;;;;5059553;28;20492;-74
2022/08/20 07:10:15;;;;;;;33.10;14.77;;;18.90;99.90;;;;;;5065129;28;20466;-72
2022/08/20 07:12:41;;;;;;;30.08;13.63;;;19.00;99.90;;;;;;5042516;28;20448;-73
2022/08/20 07:15:09;;;;;;;41.05;15.23;;;19.10;99.90;;;;;;5059905;28;20108;-72
2022/08/20 07:17:36;;;;;;;31.05;13.48;;;19.10;99.90;;;;;;5040414;28;20452;-72
2022/08/20 07:20:09;;;;;;;35.00;14.20;;;19.00;99.90;;;;;;5058037;28;20021;-72
2022/08/20 07:22:35;;;;;;;37.20;13.60;;;19.30;99.90;;;;;;5051135;28;20070;-74
2022/08/20 07:25:07;;;;;;;31.48;13.02;;;19.10;99.90;;;;;;5044802;28;20523;-73
2022/08/20 07:27:33;;;;;;;37.30;12.48;;;19.20;99.90;;;;;;5044691;28;20081;-73
2022/08/20 07:32:44;;;;;;;26.23;11.80;;;19.70;99.90;;;;;;5037407;28;20499;-71
2022/08/20 07:35:13;;;;;;;27.30;12.02;;;19.40;99.90;;;;;;5049430;28;20496;-70
2022/08/20 07:37:42;;;;;;;30.40;11.55;;;19.50;99.90;;;;;;5068222;28;20024;-71
2022/08/20 07:40:12;;;;;;;28.33;12.23;;;19.50;99.90;;;;;;5062996;28;20093;-74
2022/08/20 07:42:39;;;;;;;25.10;11.07;;;19.60;99.90;;;;;;5056955;28;20098;-75
2022/08/20 07:45:12;;;;;;;25.90;11.13;;;19.90;99.90;;;;;;5054307;28;20025;-73
2022/08/20 07:47:40;;;;;;;26.95;11.88;;;20.10;99.90;;;;;;5045113;28;20513;-75
2022/08/20 07:50:08;;;;;;;22.52;10.40;;;20.40;99.90;;;;;;5066366;28;20430;-70
2022/08/20 07:52:34;;;;;;;21.77;10.63;;;20.60;99.90;;;;;;5058363;28;20028;-74
2022/08/20 07:55:06;;;;;;;25.73;10.23;;;21.00;99.90;;;;;;5048428;28;20036;-75
2022/08/20 07:57:33;;;;;;;22.42;9.18;;;21.10;99.90;;;;;;5050224;28;20136;-74
2022/08/20 07:59:59;;;;;;;22.58;10.57;;;21.50;99.90;;;;;;5054030;28;20549;-75
2022/08/20 08:02:26;;;;;;;23.13;10.07;;;21.70;99.90;;;;;;5040788;28;20028;-75
2022/08/20 08:04:52;;;;;;;27.17;10.15;;;21.50;99.90;;;;;;5049626;28;20025;-74
2022/08/20 08:07:18;;;;;;;24.88;9.80;;;21.50;99.90;;;;;;5060634;28;20021;-72
2022/08/20 08:09:45;;;;;;;21.83;9.02;;;21.30;99.90;;;;;;5058587;28;20031;-72
2022/08/20 08:12:12;;;;;;;16.65;7.93;;;21.00;99.90;;;;;;5049026;28;20487;-72
2022/08/20 08:14:40;;;;;;;23.08;7.40;;;21.10;99.90;;;;;;5036837;28;20100;-69
2022/08/20 08:17:07;;;;;;;22.65;7.72;;;21.30;99.90;;;;;;5032208;28;20432;-70
2022/08/20 08:19:38;;;;;;;19.88;6.93;;;21.30;99.90;;;;;;5033836;28;20131;-70
2022/08/20 08:22:11;;;;;;;20.25;6.20;;;21.50;99.90;;;;;;5048121;28;20029;-71
2022/08/20 08:24:39;;;;;;;16.77;6.95;;;21.80;99.90;;;;;;5039069;28;20075;-72
2022/08/20 08:27:06;;;;;;;13.35;4.78;;;21.70;99.90;;;;;;5067895;28;20021;-67
2022/08/20 08:29:34;;;;;;;14.25;5.00;;;21.80;99.90;;;;;;5062143;28;20428;-69
2022/08/20 08:32:04;;;;;;;22.60;4.88;;;21.30;99.90;;;;;;5058875;28;20073;-71
2022/08/20 08:34:31;;;;;;;15.05;4.57;;;21.60;99.90;;;;;;5069969;28;20040;-71
2022/08/20 08:36:57;;;;;;;24.67;4.32;;;21.90;99.90;;;;;;5062899;28;20062;-68
2022/08/20 08:39:24;;;;;;;14.73;4.00;;;22.20;99.90;;;;;;5059504;28;20178;-67
2022/08/20 08:41:51;;;;;;;13.35;3.75;;;22.40;99.90;;;;;;5056425;28;20024;-70
2022/08/20 08:44:40;;;;;;;15.40;3.83;;;22.10;99.90;;;;;;5060182;28;20035;-72
2022/08/20 08:47:28;;;;;;;14.90;3.47;;;22.10;99.90;;;;;;5064927;28;20525;-66
2022/08/20 08:49:56;;;;;;;14.95;3.85;;;22.20;99.90;;;;;;5050085;28;20047;-66
2022/08/20 08:52:26;;;;;;;19.58;4.78;;;22.50;99.90;;;;;;5050849;28;20025;-73
2022/08/20 08:54:55;;;;;;;13.57;2.72;;;22.70;99.90;;;;;;5052229;28;20090;-73
2022/08/20 08:57:22;;;;;;;9.00;2.50;;;22.60;99.90;;;;;;5052321;28;20025;-68
2022/08/20 08:59:58;;;;;;;15.50;3.42;;;22.60;99.90;;;;;;5035525;28;20033;-72
2022/08/20 09:02:27;;;;;;;21.02;3.53;;;22.60;99.90;;;;;;5051632;28;20377;-73
2022/08/20 09:04:55;;;;;;;10.57;2.92;;;22.80;99.90;;;;;;5053110;28;20032;-69
2022/08/20 09:07:23;;;;;;;8.25;2.63;;;22.90;99.90;;;;;;5052813;28;20025;-66
2022/08/20 09:09:50;;;;;;;14.38;3.03;;;22.80;99.90;;;;;;5053367;28;20071;-70
2022/08/20 09:12:19;;;;;;;10.88;2.80;;;23.10;99.70;;;;;;5052958;28;20032;-72
2022/08/20 09:14:47;;;;;;;11.27;2.50;;;23.00;99.90;;;;;;5052793;28;20444;-72
2022/08/20 09:17:14;;;;;;;12.57;2.72;;;23.00;99.30;;;;;;5052663;28;20449;-73
2022/08/20 09:19:40;;;;;;;17.23;3.28;;;23.30;98.10;;;;;;5031651;28;20044;-72
2022/08/20 09:22:08;;;;;;;17.10;3.47;;;23.60;98.60;;;;;;5052901;28;20032;-69
2022/08/20 09:24:39;;;;;;;13.43;2.90;;;23.50;99.00;;;;;;5035603;28;20393;-72
2022/08/20 09:27:05;;;;;;;16.05;3.00;;;23.50;97.80;;;;;;5050822;28;20064;-70
2022/08/20 09:29:31;;;;;;;16.48;3.30;;;24.00;98.10;;;;;;5057046;28;20060;-70
2022/08/20 09:32:09;;;;;;;18.45;4.20;;;24.10;96.90;;;;;;5038855;28;20040;-69
2022/08/20 09:34:37;;;;;;;12.35;3.63;;;24.00;97.30;;;;;;5065499;28;20385;-71
2022/08/20 09:37:03;;;;;;;13.60;3.40;;;23.90;98.30;;;;;;5057504;28;20045;-71
2022/08/20 09:39:29;;;;;;;14.13;3.95;;;23.80;98.90;;;;;;5054942;28;20032;-70
2022/08/20 09:42:15;;;;;;;15.25;3.72;;;23.40;99.90;;;;;;5053725;28;20021;-69
2022/08/20 09:44:41;;;;;;;18.85;4.47;;;23.40;99.50;;;;;;5067020;28;20029;-72
2022/08/20 09:47:08;;;;;;;14.57;3.63;;;22.90;99.90;;;;;;5060148;28;20043;-72
2022/08/20 09:49:36;;;;;;;12.10;3.50;;;22.90;99.90;;;;;;5056337;28;20029;-72
2022/08/20 09:52:03;;;;;;;10.68;3.17;;;23.30;99.90;;;;;;5056315;28;20025;-70
2022/08/20 09:54:32;;;;;;;13.63;3.20;;;23.40;99.90;;;;;;5072588;28;20031;-70
2022/08/20 09:57:06;;;;;;;10.38;2.95;;;23.00;99.90;;;;;;5069066;28;20488;-71
2022/08/20 09:59:33;;;;;;;20.35;4.53;;;22.40;99.90;;;;;;5061319;28;20103;-72
2022/08/20 10:01:59;;;;;;;11.40;3.35;;;22.40;99.90;;;;;;5036331;28;20021;-73
2022/08/20 10:04:25;;;;;;;12.45;3.65;;;22.30;99.90;;;;;;5055370;28;20508;-72
2022/08/20 10:06:51;;;;;;;14.18;3.28;;;22.50;99.90;;;;;;5056473;28;20370;-71
2022/08/20 10:09:17;;;;;;;12.75;3.25;;;22.90;99.90;;;;;;5055343;28;20032;-72
2022/08/20 10:11:43;;;;;;;19.80;2.95;;;22.80;99.90;;;;;;5037630;28;20359;-70
2022/08/20 10:14:09;;;;;;;19.48;3.67;;;22.90;99.90;;;;;;5055652;28;20047;-72
2022/08/20 10:16:36;;;;;;;13.27;3.08;;;23.50;99.90;;;;;;5051600;28;20040;-72
2022/08/20 10:19:03;;;;;;;17.00;3.28;;;23.80;98.50;;;;;;5067915;28;20040;-68
2022/08/20 10:21:30;;;;;;;13.07;3.75;;;24.20;97.40;;;;;;5061300;28;20033;-72
2022/08/20 10:23:57;;;;;;;11.48;2.90;;;24.30;97.80;;;;;;5059005;28;20489;-73
2022/08/20 10:26:23;;;;;;;13.88;3.08;;;24.80;97.90;;;;;;5059211;28;20029;-72
2022/08/20 10:28:48;;;;;;;12.82;3.47;;;24.70;96.90;;;;;;5071190;28;20527;-72
2022/08/20 10:31:17;;;;;;;15.13;3.80;;;24.20;98.00;;;;;;5065517;28;20043;-73
2022/08/20 10:33:43;;;;;;;15.70;3.50;;;23.50;98.40;;;;;;5064040;28;20017;-72
2022/08/20 10:36:12;;;;;;;15.43;3.80;;;23.40;99.70;;;;;;5061989;28;20056;-71
2022/08/20 10:38:38;;;;;;;16.38;3.60;;;24.00;98.80;;;;;;5056525;28;20043;-71
2022/08/20 10:41:05;;;;;;;20.27;3.38;;;24.70;96.80;;;;;;5064572;28;20465;-71
2022/08/20 10:43:31;;;;;;;11.38;2.97;;;23.90;96.50;;;;;;5051060;28;20074;-70
2022/08/20 10:45:57;;;;;;;19.65;3.78;;;24.10;97.70;;;;;;5063560;28;20025;-69
2022/08/20 10:48:23;;;;;;;16.98;4.10;;;24.60;97.40;;;;;;5063775;28;20047;-69
2022/08/20 10:50:49;;;;;;;14.55;3.20;;;24.60;96.50;;;;;;5037755;28;20021;-70
2022/08/20 10:53:16;;;;;;;11.43;2.95;;;24.60;96.80;;;;;;5066189;28;20036;-67
2022/08/20 10:55:42;;;;;;;15.05;3.08;;;24.20;96.50;;;;;;5065299;28;20041;-69
2022/08/20 10:58:08;;;;;;;9.10;2.85;;;24.90;96.60;;;;;;5064177;28;20083;-71
2022/08/20 11:00:35;;;;;;;11.13;3.17;;;25.10;95.30;;;;;;5040948;28;20072;-72
2022/08/20 11:03:01;;;;;;;14.23;3.47;;;24.90;94.00;;;;;;5044779;28;20025;-68
2022/08/20 11:05:27;;;;;;;21.60;3.50;;;24.70;94.50;;;;;;5068477;28;20384;-71
2022/08/20 11:07:54;;;;;;;9.07;2.60;;;25.00;94.60;;;;;;5075398;28;20179;-70
2022/08/20 11:10:21;;;;;;;29.38;3.78;;;24.80;95.40;;;;;;5051527;28;20017;-70
2022/08/20 11:12:47;;;;;;;15.27;2.75;;;24.70;95.60;;;;;;5056727;28;20029;-71
2022/08/20 11:15:14;;;;;;;10.95;2.70;;;24.60;95.00;;;;;;5051631;28;20033;-68
2022/08/20 11:17:42;;;;;;;11.68;3.22;;;23.90;96.30;;;;;;5058059;28;20480;-72
2022/08/20 11:20:09;;;;;;;15.05;3.22;;;23.60;96.30;;;;;;5051778;28;20071;-70
2022/08/20 11:22:36;;;;;;;11.43;2.70;;;23.80;96.10;;;;;;5042184;28;20013;-73
2022/08/20 11:25:03;;;;;;;9.48;3.35;;;23.70;96.10;;;;;;5046348;28;20382;-67
2022/08/20 11:27:37;;;;;;;12.35;3.85;;;24.20;96.20;;;;;;5061769;28;20104;-66
2022/08/20 11:30:04;;;;;;;13.10;3.60;;;24.50;96.60;;;;;;5053798;28;20454;-67
2022/08/20 11:32:30;;;;;;;9.63;3.00;;;24.70;96.80;;;;;;5058096;28;20103;-67
2022/08/20 11:34:56;;;;;;;8.35;3.58;;;24.10;96.60;;;;;;5064373;28;20132;-68
2022/08/20 11:37:24;;;;;;;7.85;2.78;;;24.10;96.80;;;;;;5058228;28;20036;-67
2022/08/20 11:39:51;;;;;;;10.43;2.95;;;23.90;97.00;;;;;;5054903;28;20453;-68
2022/08/20 11:42:17;;;;;;;7.68;2.85;;;24.10;96.80;;;;;;5049912;28;20029;-68
2022/08/20 11:44:43;;;;;;;10.05;2.92;;;24.10;96.10;;;;;;5054240;28;20021;-68
2022/08/20 11:47:18;;;;;;;10.63;2.97;;;24.10;96.30;;;;;;5049934;28;20127;-69
2022/08/20 11:49:44;;;;;;;10.63;3.25;;;24.30;96.40;;;;;;5045952;28;20047;-67
2022/08/20 11:52:09;;;;;;;7.82;2.80;;;24.70;96.10;;;;;;5059369;28;20037;-66
2022/08/20 11:54:39;;;;;;;12.88;3.00;;;24.80;96.10;;;;;;5050075;28;20041;-67
2022/08/20 11:57:05;;;;;;;21.92;2.75;;;25.00;94.40;;;;;;5036849;28;20367;-67
2022/08/20 11:59:31;;;;;;;11.02;3.60;;;24.80;95.10;;;;;;5053716;28;20024;-71
2022/08/20 12:01:57;;;;;;;17.38;3.70;;;25.50;94.60;;;;;;5043098;28;20033;-66
2022/08/20 12:04:23;;;;;;;14.20;3.63;;;26.10;93.80;;;;;;5041005;28;20029;-68
2022/08/20 12:06:49;;;;;;;10.13;3.00;;;25.10;94.20;;;;;;5035574;28;20420;-70
2022/08/20 12:09:16;;;;;;;12.90;3.30;;;23.90;95.70;;;;;;5036203;28;20108;-66
2022/08/20 12:11:42;;;;;;;11.07;2.90;;;24.40;95.70;;;;;;5036964;28;20017;-68
2022/08/20 12:14:08;;;;;;;9.40;2.40;;;25.30;95.10;;;;;;5034747;28;20032;-68
2022/08/20 12:16:34;;;;;;;10.77;2.55;;;25.90;95.60;;;;;;5047981;28;20029;-68
2022/08/20 12:18:59;;;;;;;9.10;2.45;;;26.10;94.80;;;;;;5053084;28;20020;-68
2022/08/20 12:21:25;;;;;;;11.32;2.60;;;25.40;95.00;;;;;;5053490;28;20034;-70
2022/08/20 12:23:51;;;;;;;11.55;2.95;;;25.40;95.80;;;;;;5051915;28;20067;-68
2022/08/20 12:26:17;;;;;;;10.30;2.75;;;25.30;95.60;;;;;;5057981;28;20041;-70
2022/08/20 12:28:43;;;;;;;21.67;2.88;;;25.60;95.40;;;;;;5055112;28;20025;-67
2022/08/20 12:31:09;;;;;;;10.45;2.60;;;26.10;96.10;;;;;;5056525;28;20128;-68
2022/08/20 12:33:35;;;;;;;6.57;2.40;;;26.20;95.20;;;;;;5057683;28;20016;-71
2022/08/20 12:36:01;;;;;;;9.15;2.50;;;25.90;95.10;;;;;;5068815;28;20465;-72
2022/08/20 12:38:27;;;;;;;11.80;2.55;;;25.40;96.00;;;;;;5063639;28;20133;-70
2022/08/20 12:40:52;;;;;;;8.35;2.72;;;25.20;96.80;;;;;;5058107;28;20111;-69
2022/08/20 12:43:18;;;;;;;11.73;2.53;;;25.10;95.60;;;;;;5037686;28;20029;-69
2022/08/20 12:45:44;;;;;;;12.43;3.55;;;25.60;95.80;;;;;;5057297;28;20126;-68
2022/08/20 12:48:12;;;;;;;10.77;2.70;;;25.70;94.30;;;;;;5066531;28;20017;-70